sensor_id;sensor_type;location;lat;lon;timestamp;temperature;humidity
1956;DHT22;978;48.314;11.562;2023-03-31T00:01:24;20.30;66.30
1956;DHT22;978;48.314;11.562;2023-03-31T00:03:52;20.30;66.30
1956;DHT22;978;48.314;11.562;2023-03-31T00:06:33;20.30;66.30
1956;DHT22;978;48.314;11.562;2023-03-31T00:09:03;20.30;66.30
1956;DHT22;978;48.314;11.562;2023-03-31T00:11:30;20.30;66.30
1956;DHT22;978;48.314;11.562;2023-03-31T00:13:57;20.30;66.30
1956;DHT22;978;48.314;11.562;2023-03-31T00:16:24;20.30;66.30
1956;DHT22;978;48.314;11.562;2023-03-31T00:18:51;20.30;66.20
1956;DHT22;978;48.314;11.562;2023-03-31T00:21:20;20.30;66.20
1956;DHT22;978;48.314;11.562;2023-03-31T00:23:56;20.30;66.20
1956;DHT22;978;48.314;11.562;2023-03-31T00:26:24;20.30;66.30
1956;DHT22;978;48.314;11.562;2023-03-31T00:28:52;20.30;66.20
1956;DHT22;978;48.314;11.562;2023-03-31T00:31:21;20.30;66.20
1956;DHT22;978;48.314;11.562;2023-03-31T00:33:48;20.30;66.20
1956;DHT22;978;48.314;11.562;2023-03-31T00:36:17;20.20;66.20
1956;DHT22;978;48.314;11.562;2023-03-31T00:38:52;20.30;66.20
1956;DHT22;978;48.314;11.562;2023-03-31T00:41:21;20.30;66.20
1956;DHT22;978;48.314;11.562;2023-03-31T00:44:09;20.30;66.20
1956;DHT22;978;48.314;11.562;2023-03-31T00:46:41;20.30;66.20
1956;DHT22;978;48.314;11.562;2023-03-31T00:49:22;20.30;66.20
1956;DHT22;978;48.314;11.562;2023-03-31T00:51:53;20.30;66.20
1956;DHT22;978;48.314;11.562;2023-03-31T00:54:23;20.30;66.20
1956;DHT22;978;48.314;11.562;2023-03-31T00:56:54;20.30;66.20
1956;DHT22;978;48.314;11.562;2023-03-31T00:59:26;20.30;66.20
1956;DHT22;978;48.314;11.562;2023-03-31T01:01:55;20.30;66.20
1956;DHT22;978;48.314;11.562;2023-03-31T01:04:25;20.30;66.20
1956;DHT22;978;48.314;11.562;2023-03-31T01:06:57;20.30;66.20
1956;DHT22;978;48.314;11.562;2023-03-31T01:09:29;20.30;66.20
1956;DHT22;978;48.314;11.562;2023-03-31T01:12:02;20.30;66.20
1956;DHT22;978;48.314;11.562;2023-03-31T01:14:30;20.30;66.20
1956;DHT22;978;48.314;11.562;2023-03-31T01:16:58;20.30;66.20
1956;DHT22;978;48.314;11.562;2023-03-31T01:19:35;20.30;66.10
1956;DHT22;978;48.314;11.562;2023-03-31T01:22:28;20.30;66.10
1956;DHT22;978;48.314;11.562;2023-03-31T01:28:24;20.30;66.10
1956;DHT22;978;48.314;11.562;2023-03-31T01:31:26;20.30;66.10
1956;DHT22;978;48.314;11.562;2023-03-31T01:37:11;20.30;66.10
1956;DHT22;978;48.314;11.562;2023-03-31T01:40:00;20.30;66.10
1956;DHT22;978;48.314;11.562;2023-03-31T01:42:37;20.30;66.10
1956;DHT22;978;48.314;11.562;2023-03-31T01:45:14;20.30;66.10
1956;DHT22;978;48.314;11.562;2023-03-31T01:47:46;20.30;66.10
1956;DHT22;978;48.314;11.562;2023-03-31T01:50:20;20.30;66.10
1956;DHT22;978;48.314;11.562;2023-03-31T01:52:54;20.30;66.10
1956;DHT22;978;48.314;11.562;2023-03-31T01:55:28;20.30;66.10
1956;DHT22;978;48.314;11.562;2023-03-31T01:57:59;20.30;66.10
1956;DHT22;978;48.314;11.562;2023-03-31T02:00:32;20.20;66.00
1956;DHT22;978;48.314;11.562;2023-03-31T02:03:04;20.30;66.10
1956;DHT22;978;48.314;11.562;2023-03-31T02:05:36;20.30;66.00
1956;DHT22;978;48.314;11.562;2023-03-31T02:08:08;20.20;66.20
1956;DHT22;978;48.314;11.562;2023-03-31T02:10:40;20.30;66.00
1956;DHT22;978;48.314;11.562;2023-03-31T02:13:10;20.30;66.00
1956;DHT22;978;48.314;11.562;2023-03-31T02:15:43;20.30;66.00
1956;DHT22;978;48.314;11.562;2023-03-31T02:18:15;20.30;66.00
1956;DHT22;978;48.314;11.562;2023-03-31T02:20:46;20.30;66.00
1956;DHT22;978;48.314;11.562;2023-03-31T02:23:19;20.30;66.00
1956;DHT22;978;48.314;11.562;2023-03-31T02:25:50;20.30;66.00
1956;DHT22;978;48.314;11.562;2023-03-31T02:28:22;20.30;66.00
1956;DHT22;978;48.314;11.562;2023-03-31T02:30:57;20.30;66.00
1956;DHT22;978;48.314;11.562;2023-03-31T02:33:29;20.30;66.00
1956;DHT22;978;48.314;11.562;2023-03-31T02:35:56;20.30;66.00
1956;DHT22;978;48.314;11.562;2023-03-31T02:38:24;20.20;65.90
1956;DHT22;978;48.314;11.562;2023-03-31T02:40:53;20.30;66.00
1956;DHT22;978;48.314;11.562;2023-03-31T02:43:21;20.30;65.90
1956;DHT22;978;48.314;11.562;2023-03-31T02:45:49;20.30;65.90
1956;DHT22;978;48.314;11.562;2023-03-31T02:48:19;20.30;66.00
1956;DHT22;978;48.314;11.562;2023-03-31T02:53:56;20.30;65.90
1956;DHT22;978;48.314;11.562;2023-03-31T02:56:43;20.30;65.90
1956;DHT22;978;48.314;11.562;2023-03-31T02:59:27;20.30;65.90
1956;DHT22;978;48.314;11.562;2023-03-31T03:02:11;20.30;65.90
1956;DHT22;978;48.314;11.562;2023-03-31T03:05:06;20.30;65.90
1956;DHT22;978;48.314;11.562;2023-03-31T03:07:41;20.30;65.90
1956;DHT22;978;48.314;11.562;2023-03-31T03:10:14;20.20;65.90
1956;DHT22;978;48.314;11.562;2023-03-31T03:12:49;20.30;65.90
1956;DHT22;978;48.314;11.562;2023-03-31T03:15:24;20.30;65.90
1956;DHT22;978;48.314;11.562;2023-03-31T03:17:53;20.30;65.90
1956;DHT22;978;48.314;11.562;2023-03-31T03:20:22;20.30;65.90
1956;DHT22;978;48.314;11.562;2023-03-31T03:22:50;20.30;65.90
1956;DHT22;978;48.314;11.562;2023-03-31T03:25:18;20.30;65.90
1956;DHT22;978;48.314;11.562;2023-03-31T03:27:48;20.30;65.90
1956;DHT22;978;48.314;11.562;2023-03-31T03:30:18;20.30;65.90
1956;DHT22;978;48.314;11.562;2023-03-31T03:32:46;20.30;65.90
1956;DHT22;978;48.314;11.562;2023-03-31T03:35:15;20.30;65.90
1956;DHT22;978;48.314;11.562;2023-03-31T03:37:43;20.30;65.90
1956;DHT22;978;48.314;11.562;2023-03-31T03:40:10;20.30;65.90
1956;DHT22;978;48.314;11.562;2023-03-31T03:42:40;20.30;65.90
1956;DHT22;978;48.314;11.562;2023-03-31T03:45:09;20.30;65.90
1956;DHT22;978;48.314;11.562;2023-03-31T03:47:37;20.30;65.90
1956;DHT22;978;48.314;11.562;2023-03-31T03:50:06;20.30;65.90
1956;DHT22;978;48.314;11.562;2023-03-31T03:52:34;20.30;65.90
1956;DHT22;978;48.314;11.562;2023-03-31T03:55:03;20.30;65.90
1956;DHT22;978;48.314;11.562;2023-03-31T03:57:31;20.20;65.90
1956;DHT22;978;48.314;11.562;2023-03-31T03:59:59;20.30;65.90
1956;DHT22;978;48.314;11.562;2023-03-31T04:02:28;20.30;66.00
1956;DHT22;978;48.314;11.562;2023-03-31T04:04:57;20.30;66.00
1956;DHT22;978;48.314;11.562;2023-03-31T04:07:25;20.20;65.90
1956;DHT22;978;48.314;11.562;2023-03-31T04:09:53;20.30;66.00
1956;DHT22;978;48.314;11.562;2023-03-31T04:12:21;20.30;66.00
1956;DHT22;978;48.314;11.562;2023-03-31T04:14:49;20.30;66.60
1956;DHT22;978;48.314;11.562;2023-03-31T04:17:17;20.30;66.00
1956;DHT22;978;48.314;11.562;2023-03-31T04:19:47;20.30;66.00
1956;DHT22;978;48.314;11.562;2023-03-31T04:22:16;20.30;66.00
1956;DHT22;978;48.314;11.562;2023-03-31T04:24:46;20.20;66.00
1956;DHT22;978;48.314;11.562;2023-03-31T04:27:18;20.30;66.00
1956;DHT22;978;48.314;11.562;2023-03-31T04:29:46;20.30;66.00
1956;DHT22;978;48.314;11.562;2023-03-31T04:32:20;20.20;66.00
1956;DHT22;978;48.314;11.562;2023-03-31T04:34:49;20.30;66.10
1956;DHT22;978;48.314;11.562;2023-03-31T04:37:18;20.30;66.10
1956;DHT22;978;48.314;11.562;2023-03-31T04:39:45;20.30;66.10
1956;DHT22;978;48.314;11.562;2023-03-31T04:42:16;20.30;66.10
1956;DHT22;978;48.314;11.562;2023-03-31T04:44:44;20.30;66.10
1956;DHT22;978;48.314;11.562;2023-03-31T04:47:11;20.30;66.10
1956;DHT22;978;48.314;11.562;2023-03-31T04:49:40;20.30;66.00
1956;DHT22;978;48.314;11.562;2023-03-31T04:52:10;20.30;66.00
1956;DHT22;978;48.314;11.562;2023-03-31T04:54:40;20.30;66.00
1956;DHT22;978;48.314;11.562;2023-03-31T04:57:07;20.30;66.00
1956;DHT22;978;48.314;11.562;2023-03-31T04:59:37;20.30;66.10
1956;DHT22;978;48.314;11.562;2023-03-31T05:02:05;20.30;66.10
1956;DHT22;978;48.314;11.562;2023-03-31T05:04:33;20.30;66.10
1956;DHT22;978;48.314;11.562;2023-03-31T05:07:01;20.30;66.10
1956;DHT22;978;48.314;11.562;2023-03-31T05:09:31;20.30;66.10
1956;DHT22;978;48.314;11.562;2023-03-31T05:11:59;20.30;66.10
1956;DHT22;978;48.314;11.562;2023-03-31T05:14:27;20.30;66.10
1956;DHT22;978;48.314;11.562;2023-03-31T05:16:55;20.30;66.00
1956;DHT22;978;48.314;11.562;2023-03-31T05:19:25;20.30;66.00
1956;DHT22;978;48.314;11.562;2023-03-31T05:21:53;20.30;66.00
1956;DHT22;978;48.314;11.562;2023-03-31T05:24:21;20.30;66.00
1956;DHT22;978;48.314;11.562;2023-03-31T05:26:50;20.30;66.00
1956;DHT22;978;48.314;11.562;2023-03-31T05:29:19;20.30;66.10
1956;DHT22;978;48.314;11.562;2023-03-31T05:31:47;20.30;66.10
1956;DHT22;978;48.314;11.562;2023-03-31T05:34:15;20.30;66.00
1956;DHT22;978;48.314;11.562;2023-03-31T05:36:43;20.30;66.00
1956;DHT22;978;48.314;11.562;2023-03-31T05:39:12;20.30;66.00
1956;DHT22;978;48.314;11.562;2023-03-31T05:41:41;20.30;66.00
1956;DHT22;978;48.314;11.562;2023-03-31T05:44:11;20.30;66.00
1956;DHT22;978;48.314;11.562;2023-03-31T05:46:39;20.30;66.10
1956;DHT22;978;48.314;11.562;2023-03-31T05:49:06;20.30;66.00
1956;DHT22;978;48.314;11.562;2023-03-31T05:51:34;20.30;66.00
1956;DHT22;978;48.314;11.562;2023-03-31T05:54:02;20.30;66.00
1956;DHT22;978;48.314;11.562;2023-03-31T05:56:31;20.30;66.10
1956;DHT22;978;48.314;11.562;2023-03-31T05:59:00;20.30;66.10
1956;DHT22;978;48.314;11.562;2023-03-31T06:01:29;20.30;66.10
1956;DHT22;978;48.314;11.562;2023-03-31T06:03:57;20.30;66.10
1956;DHT22;978;48.314;11.562;2023-03-31T06:06:25;20.30;66.10
1956;DHT22;978;48.314;11.562;2023-03-31T06:08:53;20.30;66.10
1956;DHT22;978;48.314;11.562;2023-03-31T06:11:22;20.30;66.10
1956;DHT22;978;48.314;11.562;2023-03-31T06:13:49;20.30;66.10
1956;DHT22;978;48.314;11.562;2023-03-31T06:16:18;20.30;66.10
1956;DHT22;978;48.314;11.562;2023-03-31T06:18:47;20.30;66.10
1956;DHT22;978;48.314;11.562;2023-03-31T06:21:17;20.30;66.10
1956;DHT22;978;48.314;11.562;2023-03-31T06:23:46;20.30;66.20
1956;DHT22;978;48.314;11.562;2023-03-31T06:26:16;20.30;66.20
1956;DHT22;978;48.314;11.562;2023-03-31T06:28:45;20.30;66.20
1956;DHT22;978;48.314;11.562;2023-03-31T06:31:13;20.30;66.20
1956;DHT22;978;48.314;11.562;2023-03-31T06:33:42;20.30;66.20
1956;DHT22;978;48.314;11.562;2023-03-31T06:36:13;20.30;66.20
1956;DHT22;978;48.314;11.562;2023-03-31T06:38:42;20.30;66.20
1956;DHT22;978;48.314;11.562;2023-03-31T06:41:11;20.30;66.20
1956;DHT22;978;48.314;11.562;2023-03-31T06:43:40;20.30;66.20
1956;DHT22;978;48.314;11.562;2023-03-31T06:46:08;20.20;66.20
1956;DHT22;978;48.314;11.562;2023-03-31T06:48:36;20.30;66.30
1956;DHT22;978;48.314;11.562;2023-03-31T06:51:05;20.20;66.30
1956;DHT22;978;48.314;11.562;2023-03-31T06:53:37;20.30;66.30
1956;DHT22;978;48.314;11.562;2023-03-31T06:56:05;20.30;66.90
1956;DHT22;978;48.314;11.562;2023-03-31T06:58:36;20.30;66.30
1956;DHT22;978;48.314;11.562;2023-03-31T07:01:05;20.20;66.30
1956;DHT22;978;48.314;11.562;2023-03-31T07:03:37;20.30;66.30
1956;DHT22;978;48.314;11.562;2023-03-31T07:06:05;20.30;66.30
1956;DHT22;978;48.314;11.562;2023-03-31T07:08:37;20.30;66.30
1956;DHT22;978;48.314;11.562;2023-03-31T07:11:05;20.30;66.40
1956;DHT22;978;48.314;11.562;2023-03-31T07:13:33;20.30;66.40
1956;DHT22;978;48.314;11.562;2023-03-31T07:16:01;20.20;66.40
1956;DHT22;978;48.314;11.562;2023-03-31T07:18:30;20.30;66.40
1956;DHT22;978;48.314;11.562;2023-03-31T07:21:00;20.30;66.40
1956;DHT22;978;48.314;11.562;2023-03-31T07:23:29;20.30;66.40
1956;DHT22;978;48.314;11.562;2023-03-31T07:25:58;20.30;66.40
1956;DHT22;978;48.314;11.562;2023-03-31T07:28:28;20.30;66.50
1956;DHT22;978;48.314;11.562;2023-03-31T07:30:56;20.30;66.50
1956;DHT22;978;48.314;11.562;2023-03-31T07:33:24;20.30;66.50
1956;DHT22;978;48.314;11.562;2023-03-31T07:35:52;20.30;66.50
1956;DHT22;978;48.314;11.562;2023-03-31T07:38:20;20.30;66.50
1956;DHT22;978;48.314;11.562;2023-03-31T07:40:48;20.30;66.50
1956;DHT22;978;48.314;11.562;2023-03-31T07:43:18;20.30;66.50
1956;DHT22;978;48.314;11.562;2023-03-31T07:45:46;20.30;66.50
1956;DHT22;978;48.314;11.562;2023-03-31T07:48:14;20.20;66.50
1956;DHT22;978;48.314;11.562;2023-03-31T07:50:41;20.20;66.50
1956;DHT22;978;48.314;11.562;2023-03-31T07:53:10;20.20;66.50
1956;DHT22;978;48.314;11.562;2023-03-31T07:55:40;20.30;66.60
1956;DHT22;978;48.314;11.562;2023-03-31T07:58:08;20.30;66.60
1956;DHT22;978;48.314;11.562;2023-03-31T08:00:38;20.20;66.50
1956;DHT22;978;48.314;11.562;2023-03-31T08:03:05;20.20;66.50
1956;DHT22;978;48.314;11.562;2023-03-31T08:05:33;20.20;66.50
1956;DHT22;978;48.314;11.562;2023-03-31T08:08:00;20.30;66.60
1956;DHT22;978;48.314;11.562;2023-03-31T08:10:28;20.30;66.60
1956;DHT22;978;48.314;11.562;2023-03-31T08:12:56;20.30;66.60
1956;DHT22;978;48.314;11.562;2023-03-31T08:15:24;20.30;66.60
1956;DHT22;978;48.314;11.562;2023-03-31T08:17:53;20.20;66.60
1956;DHT22;978;48.314;11.562;2023-03-31T08:20:21;20.30;66.60
1956;DHT22;978;48.314;11.562;2023-03-31T08:22:49;20.30;66.60
1956;DHT22;978;48.314;11.562;2023-03-31T08:25:18;20.30;66.70
1956;DHT22;978;48.314;11.562;2023-03-31T08:27:46;20.20;66.60
1956;DHT22;978;48.314;11.562;2023-03-31T08:30:18;20.30;66.70
1956;DHT22;978;48.314;11.562;2023-03-31T08:32:46;20.30;66.70
1956;DHT22;978;48.314;11.562;2023-03-31T08:35:16;20.30;66.70
1956;DHT22;978;48.314;11.562;2023-03-31T08:37:44;20.30;66.70
1956;DHT22;978;48.314;11.562;2023-03-31T08:40:15;20.30;66.70
1956;DHT22;978;48.314;11.562;2023-03-31T08:42:46;20.20;66.70
1956;DHT22;978;48.314;11.562;2023-03-31T08:45:20;20.30;66.80
1956;DHT22;978;48.314;11.562;2023-03-31T08:47:51;20.30;66.80
1956;DHT22;978;48.314;11.562;2023-03-31T08:50:24;20.30;66.80
1956;DHT22;978;48.314;11.562;2023-03-31T08:52:58;20.30;66.80
1956;DHT22;978;48.314;11.562;2023-03-31T08:55:34;20.30;66.80
1956;DHT22;978;48.314;11.562;2023-03-31T08:58:11;20.30;66.90
1956;DHT22;978;48.314;11.562;2023-03-31T09:00:46;20.30;66.90
1956;DHT22;978;48.314;11.562;2023-03-31T09:03:22;20.30;67.00
1956;DHT22;978;48.314;11.562;2023-03-31T09:05:59;20.30;67.00
1956;DHT22;978;48.314;11.562;2023-03-31T09:08:35;20.30;67.00
1956;DHT22;978;48.314;11.562;2023-03-31T09:11:10;20.20;66.90
1956;DHT22;978;48.314;11.562;2023-03-31T09:13:51;20.30;67.00
1956;DHT22;978;48.314;11.562;2023-03-31T09:16:24;20.30;67.50
1956;DHT22;978;48.314;11.562;2023-03-31T09:18:56;20.30;66.90
1956;DHT22;978;48.314;11.562;2023-03-31T09:21:30;20.30;67.00
1956;DHT22;978;48.314;11.562;2023-03-31T09:24:03;20.30;67.00
1956;DHT22;978;48.314;11.562;2023-03-31T09:26:37;20.30;67.00
1956;DHT22;978;48.314;11.562;2023-03-31T09:29:09;20.30;67.00
1956;DHT22;978;48.314;11.562;2023-03-31T09:31:41;20.30;67.00
1956;DHT22;978;48.314;11.562;2023-03-31T09:34:13;20.30;67.00
1956;DHT22;978;48.314;11.562;2023-03-31T09:36:43;20.30;67.00
1956;DHT22;978;48.314;11.562;2023-03-31T09:39:13;20.30;67.00
1956;DHT22;978;48.314;11.562;2023-03-31T09:41:43;20.30;67.00
1956;DHT22;978;48.314;11.562;2023-03-31T09:44:21;20.30;67.00
1956;DHT22;978;48.314;11.562;2023-03-31T09:46:50;20.30;67.00
1956;DHT22;978;48.314;11.562;2023-03-31T09:49:20;20.30;67.10
1956;DHT22;978;48.314;11.562;2023-03-31T09:51:59;20.20;67.00
1956;DHT22;978;48.314;11.562;2023-03-31T09:54:33;20.30;67.00
1956;DHT22;978;48.314;11.562;2023-03-31T09:57:11;20.30;67.00
1956;DHT22;978;48.314;11.562;2023-03-31T09:59:42;20.30;67.10
1956;DHT22;978;48.314;11.562;2023-03-31T10:02:34;20.20;67.00
1956;DHT22;978;48.314;11.562;2023-03-31T10:05:04;20.30;67.10
1956;DHT22;978;48.314;11.562;2023-03-31T10:07:34;20.30;67.00
1956;DHT22;978;48.314;11.562;2023-03-31T10:10:02;20.30;67.00
1956;DHT22;978;48.314;11.562;2023-03-31T10:12:37;20.30;67.00
1956;DHT22;978;48.314;11.562;2023-03-31T10:15:19;20.30;67.00
1956;DHT22;978;48.314;11.562;2023-03-31T10:17:48;20.30;67.00
1956;DHT22;978;48.314;11.562;2023-03-31T10:20:31;20.30;67.00
1956;DHT22;978;48.314;11.562;2023-03-31T10:23:13;20.30;67.00
1956;DHT22;978;48.314;11.562;2023-03-31T10:25:42;20.30;67.00
1956;DHT22;978;48.314;11.562;2023-03-31T10:28:11;20.20;66.90
1956;DHT22;978;48.314;11.562;2023-03-31T10:30:46;20.30;67.00
1956;DHT22;978;48.314;11.562;2023-03-31T10:33:18;20.20;66.90
1956;DHT22;978;48.314;11.562;2023-03-31T10:35:47;20.30;67.00
1956;DHT22;978;48.314;11.562;2023-03-31T10:38:24;20.30;66.90
1956;DHT22;978;48.314;11.562;2023-03-31T10:40:55;20.20;66.90
1956;DHT22;978;48.314;11.562;2023-03-31T10:43:26;20.30;67.00
1956;DHT22;978;48.314;11.562;2023-03-31T10:45:56;20.30;66.90
1956;DHT22;978;48.314;11.562;2023-03-31T10:48:27;20.30;67.00
1956;DHT22;978;48.314;11.562;2023-03-31T10:50:59;20.20;66.90
1956;DHT22;978;48.314;11.562;2023-03-31T10:53:29;20.20;66.90
1956;DHT22;978;48.314;11.562;2023-03-31T10:56:16;20.30;67.00
1956;DHT22;978;48.314;11.562;2023-03-31T10:58:57;20.20;66.90
1956;DHT22;978;48.314;11.562;2023-03-31T11:01:36;20.30;66.90
1956;DHT22;978;48.314;11.562;2023-03-31T11:04:30;20.30;66.90
1956;DHT22;978;48.314;11.562;2023-03-31T11:07:05;20.30;66.90
1956;DHT22;978;48.314;11.562;2023-03-31T11:09:45;20.30;66.90
1956;DHT22;978;48.314;11.562;2023-03-31T11:12:21;20.30;66.90
1956;DHT22;978;48.314;11.562;2023-03-31T11:15:07;20.30;66.80
1956;DHT22;978;48.314;11.562;2023-03-31T11:17:53;20.40;67.00
1956;DHT22;978;48.314;11.562;2023-03-31T11:20:28;20.30;67.00
1956;DHT22;978;48.314;11.562;2023-03-31T11:23:04;20.40;67.00
1956;DHT22;978;48.314;11.562;2023-03-31T11:25:45;20.40;67.10
1956;DHT22;978;48.314;11.562;2023-03-31T11:28:48;20.40;67.10
1956;DHT22;978;48.314;11.562;2023-03-31T11:31:35;20.40;67.00
1956;DHT22;978;48.314;11.562;2023-03-31T11:34:36;20.40;67.10
1956;DHT22;978;48.314;11.562;2023-03-31T11:40:17;20.40;67.10
1956;DHT22;978;48.314;11.562;2023-03-31T11:42:58;20.40;67.20
1956;DHT22;978;48.314;11.562;2023-03-31T11:45:30;20.40;67.20
1956;DHT22;978;48.314;11.562;2023-03-31T11:48:05;20.40;67.30
1956;DHT22;978;48.314;11.562;2023-03-31T11:50:36;20.40;67.30
1956;DHT22;978;48.314;11.562;2023-03-31T11:53:14;20.40;67.30
1956;DHT22;978;48.314;11.562;2023-03-31T11:55:45;20.40;67.30
1956;DHT22;978;48.314;11.562;2023-03-31T11:58:20;20.40;67.30
1956;DHT22;978;48.314;11.562;2023-03-31T12:00:52;20.40;67.30
1956;DHT22;978;48.314;11.562;2023-03-31T12:03:31;20.40;67.40
1956;DHT22;978;48.314;11.562;2023-03-31T12:06:07;20.40;67.40
1956;DHT22;978;48.314;11.562;2023-03-31T12:08:40;20.40;67.40
1956;DHT22;978;48.314;11.562;2023-03-31T12:11:15;20.40;67.40
1956;DHT22;978;48.314;11.562;2023-03-31T12:13:51;20.40;67.40
1956;DHT22;978;48.314;11.562;2023-03-31T12:16:22;20.40;67.40
1956;DHT22;978;48.314;11.562;2023-03-31T12:18:58;20.40;67.50
1956;DHT22;978;48.314;11.562;2023-03-31T12:21:32;20.40;67.40
1956;DHT22;978;48.314;11.562;2023-03-31T12:24:01;20.40;67.40
1956;DHT22;978;48.314;11.562;2023-03-31T12:26:38;20.40;67.50
1956;DHT22;978;48.314;11.562;2023-03-31T12:29:20;20.40;67.50
1956;DHT22;978;48.314;11.562;2023-03-31T12:31:52;20.40;67.40
1956;DHT22;978;48.314;11.562;2023-03-31T12:34:23;20.40;67.50
1956;DHT22;978;48.314;11.562;2023-03-31T12:37:19;20.40;67.50
1956;DHT22;978;48.314;11.562;2023-03-31T12:40:11;20.40;67.50
1956;DHT22;978;48.314;11.562;2023-03-31T12:42:58;20.40;67.50
1956;DHT22;978;48.314;11.562;2023-03-31T12:45:35;20.40;67.40
1956;DHT22;978;48.314;11.562;2023-03-31T12:48:14;20.40;67.50
1956;DHT22;978;48.314;11.562;2023-03-31T12:51:00;20.40;67.40
1956;DHT22;978;48.314;11.562;2023-03-31T12:53:41;20.40;67.50
1956;DHT22;978;48.314;11.562;2023-03-31T12:56:11;20.40;67.50
1956;DHT22;978;48.314;11.562;2023-03-31T12:58:43;20.40;67.50
1956;DHT22;978;48.314;11.562;2023-03-31T13:01:16;20.40;67.60
1956;DHT22;978;48.314;11.562;2023-03-31T13:04:16;20.40;67.60
1956;DHT22;978;48.314;11.562;2023-03-31T13:06:52;20.40;67.50
1956;DHT22;978;48.314;11.562;2023-03-31T13:09:38;20.40;67.50
1956;DHT22;978;48.314;11.562;2023-03-31T13:12:07;20.40;67.50
1956;DHT22;978;48.314;11.562;2023-03-31T13:14:37;20.40;67.50
1956;DHT22;978;48.314;11.562;2023-03-31T13:17:28;20.40;67.50
1956;DHT22;978;48.314;11.562;2023-03-31T13:20:16;20.40;67.50
1956;DHT22;978;48.314;11.562;2023-03-31T13:22:58;20.40;67.50
1956;DHT22;978;48.314;11.562;2023-03-31T13:25:52;20.40;67.50
1956;DHT22;978;48.314;11.562;2023-03-31T13:28:33;20.40;67.60
1956;DHT22;978;48.314;11.562;2023-03-31T13:31:06;20.40;67.60
1956;DHT22;978;48.314;11.562;2023-03-31T13:33:42;20.40;67.60
1956;DHT22;978;48.314;11.562;2023-03-31T13:36:47;20.40;67.60
1956;DHT22;978;48.314;11.562;2023-03-31T13:40:04;20.40;67.50
1956;DHT22;978;48.314;11.562;2023-03-31T13:42:54;20.40;67.60
1956;DHT22;978;48.314;11.562;2023-03-31T13:45:41;20.40;67.50
1956;DHT22;978;48.314;11.562;2023-03-31T13:48:30;20.40;67.60
1956;DHT22;978;48.314;11.562;2023-03-31T13:51:17;20.40;67.60
1956;DHT22;978;48.314;11.562;2023-03-31T13:57:09;20.40;67.70
1956;DHT22;978;48.314;11.562;2023-03-31T14:00:20;20.40;67.70
1956;DHT22;978;48.314;11.562;2023-03-31T14:03:16;20.40;67.70
1956;DHT22;978;48.314;11.562;2023-03-31T14:05:54;20.40;67.70
1956;DHT22;978;48.314;11.562;2023-03-31T14:08:45;20.40;67.70
1956;DHT22;978;48.314;11.562;2023-03-31T14:11:28;20.40;67.80
1956;DHT22;978;48.314;11.562;2023-03-31T14:13:59;20.40;67.80
1956;DHT22;978;48.314;11.562;2023-03-31T14:16:28;20.40;67.80
1956;DHT22;978;48.314;11.562;2023-03-31T14:19:22;20.40;68.40
1956;DHT22;978;48.314;11.562;2023-03-31T14:22:04;20.40;67.80
1956;DHT22;978;48.314;11.562;2023-03-31T14:24:40;20.50;67.80
1956;DHT22;978;48.314;11.562;2023-03-31T14:27:19;20.40;67.70
1956;DHT22;978;48.314;11.562;2023-03-31T14:29:57;20.40;67.70
1956;DHT22;978;48.314;11.562;2023-03-31T14:32:33;20.40;67.80
1956;DHT22;978;48.314;11.562;2023-03-31T14:35:17;20.40;67.70
1956;DHT22;978;48.314;11.562;2023-03-31T14:37:49;20.40;67.70
1956;DHT22;978;48.314;11.562;2023-03-31T14:40:19;20.40;67.70
1956;DHT22;978;48.314;11.562;2023-03-31T14:42:47;20.50;67.70
1956;DHT22;978;48.314;11.562;2023-03-31T14:45:19;20.40;67.60
1956;DHT22;978;48.314;11.562;2023-03-31T14:47:54;20.40;67.70
1956;DHT22;978;48.314;11.562;2023-03-31T14:50:28;20.40;67.70
1956;DHT22;978;48.314;11.562;2023-03-31T14:52:56;20.50;67.90
1956;DHT22;978;48.314;11.562;2023-03-31T14:55:28;20.40;67.80
1956;DHT22;978;48.314;11.562;2023-03-31T14:57:59;20.40;67.70
1956;DHT22;978;48.314;11.562;2023-03-31T15:00:30;20.40;67.70
1956;DHT22;978;48.314;11.562;2023-03-31T15:03:01;20.40;67.70
1956;DHT22;978;48.314;11.562;2023-03-31T15:05:30;20.50;67.80
1956;DHT22;978;48.314;11.562;2023-03-31T15:08:01;20.40;67.70
1956;DHT22;978;48.314;11.562;2023-03-31T15:10:35;20.50;67.80
1956;DHT22;978;48.314;11.562;2023-03-31T15:13:07;20.40;67.70
1956;DHT22;978;48.314;11.562;2023-03-31T15:15:36;20.50;67.70
1956;DHT22;978;48.314;11.562;2023-03-31T15:18:04;20.40;67.70
1956;DHT22;978;48.314;11.562;2023-03-31T15:20:35;20.50;67.70
1956;DHT22;978;48.314;11.562;2023-03-31T15:23:17;20.40;67.70
1956;DHT22;978;48.314;11.562;2023-03-31T15:25:48;20.40;67.70
1956;DHT22;978;48.314;11.562;2023-03-31T15:28:17;20.40;67.70
1956;DHT22;978;48.314;11.562;2023-03-31T15:30:47;20.50;67.80
1956;DHT22;978;48.314;11.562;2023-03-31T15:33:18;20.40;67.80
1956;DHT22;978;48.314;11.562;2023-03-31T15:35:48;20.50;67.80
1956;DHT22;978;48.314;11.562;2023-03-31T15:38:16;20.40;67.80
1956;DHT22;978;48.314;11.562;2023-03-31T15:40:49;20.50;67.90
1956;DHT22;978;48.314;11.562;2023-03-31T15:43:27;20.50;67.90
1956;DHT22;978;48.314;11.562;2023-03-31T15:45:56;20.40;67.90
1956;DHT22;978;48.314;11.562;2023-03-31T15:48:28;20.50;67.90
1956;DHT22;978;48.314;11.562;2023-03-31T15:51:05;20.50;67.90
1956;DHT22;978;48.314;11.562;2023-03-31T15:53:36;20.40;67.90
1956;DHT22;978;48.314;11.562;2023-03-31T15:56:06;20.50;67.90
1956;DHT22;978;48.314;11.562;2023-03-31T15:58:54;20.40;67.80
1956;DHT22;978;48.314;11.562;2023-03-31T16:01:33;20.50;67.90
1956;DHT22;978;48.314;11.562;2023-03-31T16:04:05;20.50;67.90
1956;DHT22;978;48.314;11.562;2023-03-31T16:06:40;20.50;67.90
1956;DHT22;978;48.314;11.562;2023-03-31T16:09:16;20.50;67.90
1956;DHT22;978;48.314;11.562;2023-03-31T16:11:50;20.50;67.90
1956;DHT22;978;48.314;11.562;2023-03-31T16:14:20;20.50;67.90
1956;DHT22;978;48.314;11.562;2023-03-31T16:16:53;20.50;67.60
1956;DHT22;978;48.314;11.562;2023-03-31T16:19:24;20.50;67.50
1956;DHT22;978;48.314;11.562;2023-03-31T16:21:55;20.40;67.30
1956;DHT22;978;48.314;11.562;2023-03-31T16:24:30;20.40;67.20
1956;DHT22;978;48.314;11.562;2023-03-31T16:27:02;20.40;67.20
1956;DHT22;978;48.314;11.562;2023-03-31T16:29:34;20.40;67.10
1956;DHT22;978;48.314;11.562;2023-03-31T16:32:07;20.40;67.70
1956;DHT22;978;48.314;11.562;2023-03-31T16:34:51;20.40;67.00
1956;DHT22;978;48.314;11.562;2023-03-31T16:37:19;20.40;67.00
1956;DHT22;978;48.314;11.562;2023-03-31T16:39:47;20.50;67.00
1956;DHT22;978;48.314;11.562;2023-03-31T16:42:16;20.40;66.90
1956;DHT22;978;48.314;11.562;2023-03-31T16:44:45;20.40;66.90
1956;DHT22;978;48.314;11.562;2023-03-31T16:47:12;20.50;67.00
1956;DHT22;978;48.314;11.562;2023-03-31T16:49:41;20.40;66.90
1956;DHT22;978;48.314;11.562;2023-03-31T16:52:09;20.40;66.80
1956;DHT22;978;48.314;11.562;2023-03-31T16:54:37;20.40;66.80
1956;DHT22;978;48.314;11.562;2023-03-31T16:57:05;20.40;66.80